createdAt,value
2022-10-18T00:00:10.793Z,7.77
2022-10-18T00:02:37.316Z,7.90
2022-10-18T00:05:03.995Z,7.79
2022-10-18T00:07:30.864Z,8.22
2022-10-18T00:09:57.660Z,9.47
2022-10-18T00:12:24.172Z,10.34
2022-10-18T00:14:50.965Z,9.17
2022-10-18T00:17:17.760Z,8.66
2022-10-18T00:19:44.383Z,8.42
2022-10-18T00:22:10.918Z,8.15
2022-10-18T00:24:37.460Z,8.41
2022-10-18T00:27:04.101Z,8.00
2022-10-18T00:29:30.638Z,8.14
2022-10-18T00:31:57.162Z,8.03
2022-10-18T00:34:23.703Z,8.07
2022-10-18T00:36:50.231Z,7.69
2022-10-18T00:39:18.407Z,7.77
2022-10-18T00:41:45.452Z,7.58
2022-10-18T00:44:14.554Z,7.29
2022-10-18T00:46:44.529Z,7.67
2022-10-18T00:49:14.185Z,7.35
2022-10-18T00:51:51.051Z,7.79
2022-10-18T00:54:19.645Z,7.60
2022-10-18T00:56:46.927Z,7.92
2022-10-18T00:59:16.002Z,7.87
2022-10-18T01:01:42.686Z,7.92
2022-10-18T01:04:09.473Z,7.77
2022-10-18T01:06:44.753Z,7.74
2022-10-18T01:09:14.550Z,7.66
2022-10-18T01:11:41.036Z,7.92
2022-10-18T01:14:10.310Z,7.61
2022-10-18T01:16:42.310Z,7.36
2022-10-18T01:19:11.944Z,7.72
2022-10-18T01:21:44.910Z,7.38
2022-10-18T01:24:14.500Z,7.43
2022-10-18T01:26:59.839Z,7.43
2022-10-18T01:29:41.214Z,7.43
2022-10-18T01:32:13.834Z,7.42
2022-10-18T01:34:43.694Z,7.76
2022-10-18T01:37:14.898Z,7.53
2022-10-18T01:39:45.015Z,7.14
2022-10-18T01:42:14.718Z,7.53
2022-10-18T01:44:42.297Z,7.24
2022-10-18T01:47:11.635Z,7.43
2022-10-18T01:49:38.130Z,7.52
2022-10-18T01:52:05.042Z,7.78
2022-10-18T01:54:35.200Z,7.47
2022-10-18T01:57:27.735Z,7.84
2022-10-18T01:59:57.265Z,7.21
2022-10-18T02:02:26.772Z,7.24
2022-10-18T02:04:59.348Z,7.87
2022-10-18T02:07:34.390Z,9.29
2022-10-18T02:12:46.869Z,10.09
2022-10-18T02:15:16.600Z,9.68
2022-10-18T02:17:46.181Z,9.26
2022-10-18T02:20:15.494Z,8.91
2022-10-18T02:22:45.948Z,8.96
2022-10-18T02:25:17.054Z,8.61
2022-10-18T02:27:43.699Z,8.23
2022-10-18T02:30:10.947Z,7.81
2022-10-18T02:32:49.081Z,8.41
2022-10-18T02:35:25.006Z,7.86
2022-10-18T02:37:53.927Z,7.95
2022-10-18T02:40:20.949Z,7.79
2022-10-18T02:42:49.440Z,7.60
2022-10-18T02:45:16.600Z,7.88
2022-10-18T02:47:43.441Z,8.39
2022-10-18T02:50:09.987Z,8.34
2022-10-18T02:52:36.887Z,9.27
2022-10-18T02:55:04.288Z,9.47
2022-10-18T02:57:31.102Z,10.43
2022-10-18T02:59:57.821Z,11.78
2022-10-18T03:02:24.391Z,12.76
2022-10-18T03:04:50.952Z,13.66
2022-10-18T03:07:17.472Z,12.71
2022-10-18T03:09:43.989Z,12.62
2022-10-18T03:12:10.515Z,12.84
2022-10-18T03:14:36.979Z,13.09
2022-10-18T03:17:03.566Z,13.04
2022-10-18T03:19:30.059Z,12.84
2022-10-18T03:21:56.656Z,12.78
2022-10-18T03:24:23.213Z,12.91
2022-10-18T03:26:49.916Z,12.29
2022-10-18T03:29:16.548Z,12.72
2022-10-18T03:31:43.091Z,12.32
2022-10-18T03:34:09.721Z,12.24
2022-10-18T03:36:36.304Z,11.87
2022-10-18T03:39:02.892Z,12.03
2022-10-18T03:41:29.438Z,11.05
2022-10-18T03:43:55.977Z,10.69
2022-10-18T03:46:22.741Z,11.57
2022-10-18T03:48:49.277Z,10.78
2022-10-18T03:51:15.904Z,10.58
2022-10-18T03:53:42.431Z,10.73
2022-10-18T03:56:08.941Z,10.09
2022-10-18T03:58:35.485Z,10.47
2022-10-18T04:01:02.013Z,9.87
2022-10-18T04:03:28.596Z,9.64
2022-10-18T04:05:55.143Z,9.33
2022-10-18T04:08:21.716Z,9.66
2022-10-18T04:10:48.252Z,9.42
2022-10-18T04:13:14.789Z,8.97
2022-10-18T04:15:41.330Z,9.12
2022-10-18T04:18:07.861Z,8.77
2022-10-18T04:20:34.466Z,9.15
2022-10-18T04:23:01.098Z,9.23
2022-10-18T04:25:28.832Z,8.95
2022-10-18T04:27:55.659Z,8.84
2022-10-18T04:30:22.173Z,8.94
2022-10-18T04:32:48.645Z,8.94
2022-10-18T04:35:15.266Z,8.70
2022-10-18T04:37:41.891Z,8.49
2022-10-18T04:40:08.759Z,8.43
2022-10-18T04:42:35.400Z,7.95
2022-10-18T04:45:01.942Z,8.55
2022-10-18T04:47:28.553Z,7.84
2022-10-18T04:49:55.185Z,8.07
2022-10-18T04:52:21.700Z,7.68
2022-10-18T04:54:48.256Z,7.95
2022-10-18T04:57:14.779Z,8.48
2022-10-18T04:59:41.317Z,8.40
2022-10-18T05:02:07.916Z,7.89
2022-10-18T05:04:34.527Z,7.81
2022-10-18T05:07:01.131Z,8.08
2022-10-18T05:09:27.659Z,7.88
2022-10-18T05:11:54.187Z,7.97
2022-10-18T05:14:20.726Z,7.86
2022-10-18T05:16:47.369Z,8.15
2022-10-18T05:19:13.939Z,7.89
2022-10-18T05:21:40.540Z,8.28
2022-10-18T05:24:07.225Z,8.20
2022-10-18T05:26:33.916Z,8.28
2022-10-18T05:29:00.611Z,8.21
2022-10-18T05:31:27.290Z,8.33
2022-10-18T05:33:53.833Z,7.93
2022-10-18T05:36:20.358Z,7.65
2022-10-18T05:38:48.324Z,8.10
2022-10-18T05:41:14.907Z,7.80
2022-10-18T05:43:41.527Z,8.26
2022-10-18T05:46:13.650Z,7.97
2022-10-18T05:48:42.241Z,7.95
2022-10-18T05:51:08.791Z,7.90
2022-10-18T05:53:37.498Z,7.56
2022-10-18T05:56:05.134Z,7.23
2022-10-18T05:58:31.813Z,7.21
2022-10-18T06:01:01.881Z,7.20
2022-10-18T06:03:30.666Z,6.98
2022-10-18T06:06:01.637Z,7.01
2022-10-18T06:08:28.368Z,6.85
2022-10-18T06:10:54.885Z,6.62
2022-10-18T06:13:21.427Z,6.72
2022-10-18T06:15:47.950Z,6.40
2022-10-18T06:18:14.486Z,6.77
2022-10-18T06:20:41.040Z,6.66
2022-10-18T06:23:08.275Z,6.94
2022-10-18T06:25:34.948Z,6.45
2022-10-18T06:28:01.506Z,6.29
2022-10-18T06:30:28.182Z,7.04
2022-10-18T06:32:54.811Z,7.52
2022-10-18T06:35:21.363Z,5.95
2022-10-18T06:37:47.897Z,5.53
2022-10-18T06:40:14.463Z,5.41
2022-10-18T06:42:41.265Z,5.59
2022-10-18T06:45:08.425Z,5.29
2022-10-18T06:47:34.952Z,5.50
2022-10-18T06:50:01.559Z,5.40
2022-10-18T06:52:28.061Z,5.57
2022-10-18T06:54:54.866Z,5.21
2022-10-18T06:57:21.726Z,5.46
2022-10-18T06:59:49.985Z,5.59
2022-10-18T07:02:19.806Z,5.73
2022-10-18T07:04:46.354Z,5.94
2022-10-18T07:07:12.876Z,5.80
2022-10-18T07:09:39.588Z,5.74
2022-10-18T07:12:06.385Z,5.72
2022-10-18T07:14:34.039Z,6.24
2022-10-18T07:17:00.754Z,6.28
2022-10-18T07:19:27.621Z,6.22
2022-10-18T07:21:54.551Z,6.32
2022-10-18T07:24:21.095Z,6.48
2022-10-18T07:26:47.694Z,6.27
2022-10-18T07:29:14.367Z,6.39
2022-10-18T07:31:41.182Z,6.47
2022-10-18T07:34:09.315Z,6.29
2022-10-18T07:36:35.911Z,6.18
2022-10-18T07:39:03.051Z,6.36
2022-10-18T07:41:32.051Z,6.36
2022-10-18T07:43:59.003Z,6.71
2022-10-18T07:46:25.751Z,6.81
2022-10-18T07:48:52.698Z,7.36
2022-10-18T07:51:20.555Z,7.81
2022-10-18T07:53:47.173Z,7.67
2022-10-18T07:56:21.464Z,7.82
2022-10-18T07:58:51.298Z,8.24
2022-10-18T08:01:19.513Z,7.82
2022-10-18T08:03:46.714Z,7.77
2022-10-18T08:06:14.621Z,8.01
2022-10-18T08:08:42.040Z,7.69
2022-10-18T08:11:19.124Z,8.13
2022-10-18T08:13:46.584Z,7.94
2022-10-18T08:16:14.494Z,8.15
2022-10-18T08:18:41.183Z,8.11
2022-10-18T08:21:09.247Z,8.34
2022-10-18T08:23:36.740Z,8.69
2022-10-18T08:26:13.991Z,8.81
2022-10-18T08:28:43.647Z,8.90
2022-10-18T08:31:19.960Z,9.44
2022-10-18T08:33:47.375Z,9.93
2022-10-18T08:36:16.122Z,10.11
2022-10-18T08:38:43.687Z,9.43
2022-10-18T08:41:22.760Z,9.15
2022-10-18T08:44:07.812Z,7.95
2022-10-18T08:46:37.031Z,7.51
2022-10-18T08:49:04.945Z,7.40
2022-10-18T08:51:45.585Z,7.84
2022-10-18T08:54:21.986Z,7.35
2022-10-18T08:56:57.003Z,6.34
2022-10-18T08:59:25.483Z,6.12
2022-10-18T09:02:01.279Z,5.90
2022-10-18T09:04:46.303Z,6.11
2022-10-18T09:07:36.938Z,6.01
2022-10-18T09:10:21.350Z,5.62
2022-10-18T09:12:59.920Z,5.37
2022-10-18T09:15:36.176Z,4.09
2022-10-18T09:18:17.816Z,3.92
2022-10-18T09:20:50.311Z,4.21
2022-10-18T09:23:20.201Z,4.17
2022-10-18T09:25:55.567Z,4.03
2022-10-18T09:28:32.832Z,3.69
2022-10-18T09:31:16.984Z,3.78
2022-10-18T09:34:02.506Z,3.75
2022-10-18T09:36:38.319Z,4.08
2022-10-18T09:39:13.351Z,3.36
2022-10-18T09:41:53.717Z,2.68
2022-10-18T09:44:34.876Z,2.78
2022-10-18T09:47:21.473Z,2.42
2022-10-18T09:49:52.114Z,3.27
2022-10-18T09:52:28.301Z,2.93
2022-10-18T09:55:02.304Z,3.48
2022-10-18T09:57:34.990Z,3.61
2022-10-18T10:00:03.751Z,4.34
2022-10-18T10:02:30.391Z,4.39
2022-10-18T10:04:57.151Z,4.00
2022-10-18T10:07:41.766Z,3.39
2022-10-18T10:10:14.304Z,3.38
2022-10-18T10:12:41.545Z,3.59
2022-10-18T10:15:28.246Z,3.16
2022-10-18T10:18:18.928Z,3.65
2022-10-18T10:20:48.233Z,3.30
2022-10-18T10:23:23.599Z,3.13
2022-10-18T10:25:55.129Z,3.64
2022-10-18T10:28:48.645Z,3.49
2022-10-18T10:31:25.720Z,3.18
2022-10-18T10:33:58.166Z,4.28
2022-10-18T10:36:24.991Z,4.03
2022-10-18T10:39:03.911Z,3.69
2022-10-18T10:43:57.744Z,2.81
2022-10-18T10:46:33.692Z,3.16
2022-10-18T10:49:27.885Z,3.58
2022-10-18T10:52:08.117Z,3.60
2022-10-18T10:54:39.093Z,3.64
2022-10-18T10:57:18.164Z,3.32
2022-10-18T10:59:50.041Z,3.82
2022-10-18T11:02:20.685Z,3.18
2022-10-18T11:04:57.163Z,3.45
2022-10-18T11:07:46.386Z,3.20
2022-10-18T11:10:19.644Z,3.88
2022-10-18T11:12:46.210Z,3.33
2022-10-18T11:15:32.655Z,3.34
2022-10-18T11:18:19.866Z,3.92
2022-10-18T11:20:49.440Z,4.19
2022-10-18T11:23:17.142Z,3.67
2022-10-18T11:25:54.892Z,3.68
2022-10-18T11:28:36.927Z,3.59
2022-10-18T11:31:06.335Z,3.06
2022-10-18T11:34:06.992Z,3.39
2022-10-18T11:36:56.221Z,3.54
2022-10-18T11:39:35.453Z,3.78
2022-10-18T11:42:12.039Z,3.70
2022-10-18T11:44:41.728Z,3.63
2022-10-18T11:47:14.319Z,3.47
2022-10-18T11:49:59.684Z,3.44
2022-10-18T11:52:46.091Z,3.55
2022-10-18T11:55:28.913Z,4.25
2022-10-18T11:58:17.384Z,3.80
2022-10-18T12:00:49.138Z,3.65
2022-10-18T12:03:22.590Z,3.77
2022-10-18T12:05:51.334Z,3.31
2022-10-18T12:08:29.579Z,3.19
2022-10-18T12:11:06.298Z,3.18
2022-10-18T12:13:45.432Z,2.79
2022-10-18T12:16:12.612Z,3.78
2022-10-18T12:18:47.113Z,3.17
2022-10-18T12:21:13.823Z,3.30
2022-10-18T12:23:53.955Z,3.63
2022-10-18T12:26:21.913Z,3.40
2022-10-18T12:28:48.556Z,3.58
2022-10-18T12:31:35.052Z,4.46
2022-10-18T12:34:25.141Z,3.60
2022-10-18T12:37:10.340Z,3.23
2022-10-18T12:39:45.134Z,3.04
2022-10-18T12:42:19.613Z,4.31
2022-10-18T12:44:47.356Z,3.51
2022-10-18T12:47:25.249Z,3.79
2022-10-18T12:49:59.442Z,3.55
2022-10-18T12:52:28.946Z,4.23
2022-10-18T12:55:08.037Z,3.78
2022-10-18T12:57:53.182Z,3.76
2022-10-18T13:00:31.930Z,3.23
2022-10-18T13:03:13.632Z,3.69
2022-10-18T13:05:53.952Z,3.98
2022-10-18T13:08:27.782Z,4.19
2022-10-18T13:11:06.453Z,4.14
2022-10-18T13:13:42.145Z,3.55
2022-10-18T13:16:25.320Z,3.66
2022-10-18T13:19:00.473Z,3.26
2022-10-18T13:21:53.518Z,3.88
2022-10-18T13:24:24.314Z,3.62
2022-10-18T13:27:18.080Z,3.24
2022-10-18T13:29:56.573Z,2.99
2022-10-18T13:32:36.904Z,2.54
2022-10-18T13:35:03.683Z,3.37
2022-10-18T13:37:30.795Z,2.83
2022-10-18T13:40:16.095Z,2.63
2022-10-18T13:42:42.682Z,2.60
2022-10-18T13:45:27.872Z,3.10
2022-10-18T13:47:54.422Z,2.82
2022-10-18T13:50:27.926Z,2.67
2022-10-18T13:53:09.782Z,2.81
2022-10-18T13:55:36.262Z,3.04
2022-10-18T13:58:06.002Z,3.19
2022-10-18T14:00:48.784Z,3.10
2022-10-18T14:03:54.950Z,2.93
2022-10-18T14:06:19.094Z,3.16
2022-10-18T14:08:54.850Z,3.01
2022-10-18T14:11:30.599Z,3.13
2022-10-18T14:14:06.891Z,3.49
2022-10-18T14:16:41.853Z,3.19
2022-10-18T14:19:14.637Z,3.93
2022-10-18T14:21:46.257Z,3.30
2022-10-18T14:24:17.918Z,3.63
2022-10-18T14:26:44.825Z,3.58
2022-10-18T14:29:20.295Z,3.59
2022-10-18T14:31:52.638Z,3.47
2022-10-18T14:34:19.305Z,2.97
2022-10-18T14:36:48.261Z,3.29
2022-10-18T14:39:29.044Z,3.76
2022-10-18T14:41:56.693Z,3.85
2022-10-18T14:44:34.812Z,3.14
2022-10-18T14:47:02.999Z,3.56
2022-10-18T14:49:30.536Z,3.29
2022-10-18T14:51:58.710Z,3.59
2022-10-18T14:54:34.041Z,3.91
2022-10-18T14:57:02.355Z,3.57
2022-10-18T14:59:52.299Z,3.70
2022-10-18T15:02:24.524Z,3.56
2022-10-18T15:05:06.482Z,3.04
2022-10-18T15:07:33.829Z,3.74
2022-10-18T15:10:04.056Z,3.59
2022-10-18T15:12:36.994Z,4.28
2022-10-18T15:15:16.883Z,3.79
2022-10-18T15:17:45.253Z,3.81
2022-10-18T15:20:17.830Z,3.70
2022-10-18T15:22:46.831Z,4.23
2022-10-18T15:25:17.900Z,4.41
2022-10-18T15:27:49.951Z,3.57
2022-10-18T15:30:19.850Z,3.48
2022-10-18T15:32:51.355Z,5.18
2022-10-18T15:35:25.683Z,4.00
2022-10-18T15:37:54.033Z,3.30
2022-10-18T15:40:23.701Z,3.29
2022-10-18T15:42:51.624Z,3.99
2022-10-18T15:45:38.161Z,3.45
2022-10-18T15:48:10.756Z,3.19
2022-10-18T15:50:42.200Z,3.47
2022-10-18T15:53:20.913Z,5.14
2022-10-18T15:55:55.563Z,4.54
2022-10-18T15:58:24.126Z,2.79
2022-10-18T16:00:51.941Z,3.08
2022-10-18T16:03:19.853Z,3.46
2022-10-18T16:05:46.597Z,3.68
2022-10-18T16:08:41.122Z,3.46
2022-10-18T16:11:14.185Z,4.38
2022-10-18T16:13:40.835Z,3.97
2022-10-18T16:16:09.639Z,3.91
2022-10-18T16:18:36.155Z,4.73
2022-10-18T16:21:02.791Z,4.37
2022-10-18T16:23:29.537Z,4.58
2022-10-18T16:25:56.151Z,4.30
2022-10-18T16:28:24.464Z,4.05
2022-10-18T16:30:54.123Z,4.12
2022-10-18T16:33:21.725Z,4.69
2022-10-18T16:35:48.834Z,5.14
2022-10-18T16:38:35.689Z,4.76
2022-10-18T16:41:04.661Z,4.55
2022-10-18T16:43:31.747Z,4.24
2022-10-18T16:45:58.441Z,4.46
2022-10-18T16:48:25.631Z,4.39
2022-10-18T16:50:53.641Z,4.66
2022-10-18T16:53:23.377Z,4.29
2022-10-18T16:55:58.692Z,4.28
2022-10-18T16:58:26.383Z,4.35
2022-10-18T17:00:52.922Z,4.29
2022-10-18T17:03:20.343Z,3.96
2022-10-18T17:05:46.933Z,4.00
2022-10-18T17:08:19.148Z,4.17
2022-10-18T17:10:46.227Z,4.24
2022-10-18T17:13:12.751Z,3.76
2022-10-18T17:15:42.453Z,3.37
2022-10-18T17:18:21.797Z,3.84
2022-10-18T17:20:49.016Z,3.22
2022-10-18T17:23:15.673Z,3.53
2022-10-18T17:25:57.738Z,4.12
2022-10-18T17:28:33.207Z,3.98
2022-10-18T17:30:59.741Z,3.97
2022-10-18T17:33:26.319Z,4.61
2022-10-18T17:35:53.157Z,5.19
2022-10-18T17:38:19.677Z,5.44
2022-10-18T17:40:46.221Z,5.30
2022-10-18T17:43:13.763Z,5.26
2022-10-18T17:45:51.123Z,5.16
2022-10-18T17:48:18.043Z,4.88
2022-10-18T17:50:44.615Z,4.68
2022-10-18T17:53:13.168Z,4.44
2022-10-18T17:55:40.486Z,4.41
2022-10-18T17:58:06.981Z,4.41
2022-10-18T18:00:33.526Z,4.56
2022-10-18T18:03:00.583Z,4.10
2022-10-18T18:05:30.578Z,4.86
2022-10-18T18:08:02.752Z,4.84
2022-10-18T18:10:32.366Z,3.93
2022-10-18T18:12:58.903Z,3.94
2022-10-18T18:15:25.422Z,4.19
2022-10-18T18:17:57.076Z,4.01
2022-10-18T18:20:24.587Z,4.12
2022-10-18T18:22:51.805Z,4.10
2022-10-18T18:25:18.842Z,4.17
2022-10-18T18:27:47.056Z,3.92
2022-10-18T18:30:15.477Z,4.20
2022-10-18T18:32:42.082Z,4.38
2022-10-18T18:35:08.821Z,4.09
2022-10-18T18:37:35.460Z,4.16
2022-10-18T18:40:02.046Z,3.96
2022-10-18T18:42:28.588Z,4.50
2022-10-18T18:44:55.211Z,4.92
2022-10-18T18:47:23.547Z,5.47
2022-10-18T18:49:51.587Z,5.29
2022-10-18T18:52:18.190Z,5.66
2022-10-18T18:54:45.138Z,6.06
2022-10-18T18:57:11.794Z,6.76
2022-10-18T18:59:38.397Z,6.68
2022-10-18T19:02:05.063Z,5.92
2022-10-18T19:04:31.632Z,5.37
2022-10-18T19:06:58.236Z,5.37
2022-10-18T19:09:27.133Z,5.74
2022-10-18T19:11:55.375Z,5.63
2022-10-18T19:14:24.269Z,5.73
2022-10-18T19:16:53.502Z,5.65
2022-10-18T19:19:21.756Z,5.54
2022-10-18T19:21:49.659Z,7.18
2022-10-18T19:24:16.266Z,8.99
2022-10-18T19:26:47.411Z,11.72
2022-10-18T19:29:26.340Z,13.90
2022-10-18T19:31:54.536Z,12.98
2022-10-18T19:34:23.448Z,11.99
2022-10-18T19:36:50.860Z,10.82
2022-10-18T19:39:21.992Z,11.34
2022-10-18T19:41:50.599Z,10.95
2022-10-18T19:44:17.943Z,7.97
2022-10-18T19:46:44.499Z,6.45
2022-10-18T19:49:11.133Z,6.18
2022-10-18T19:51:37.728Z,5.99
2022-10-18T19:54:04.879Z,5.43
2022-10-18T19:56:31.421Z,4.96
2022-10-18T19:58:58.681Z,5.13
2022-10-18T20:01:26.325Z,4.65
2022-10-18T20:03:53.545Z,4.39
2022-10-18T20:06:20.560Z,4.42
2022-10-18T20:08:47.894Z,4.15
2022-10-18T20:11:16.194Z,4.16
2022-10-18T20:13:43.549Z,3.88
2022-10-18T20:16:11.325Z,4.16
2022-10-18T20:18:38.106Z,4.47
2022-10-18T20:21:06.517Z,4.33
2022-10-18T20:23:34.964Z,3.87
2022-10-18T20:26:03.563Z,4.38
2022-10-18T20:28:30.446Z,4.36
2022-10-18T20:31:05.134Z,4.44
2022-10-18T20:33:32.084Z,4.52
2022-10-18T20:36:09.967Z,5.62
2022-10-18T20:38:38.239Z,5.84
2022-10-18T20:41:31.225Z,4.69
2022-10-18T20:44:02.466Z,4.45
2022-10-18T20:46:34.947Z,4.24
2022-10-18T20:49:01.552Z,5.12
2022-10-18T20:51:28.211Z,5.55
2022-10-18T20:53:55.004Z,5.54
2022-10-18T20:56:27.149Z,5.06
2022-10-18T20:58:55.167Z,4.53
2022-10-18T21:01:26.217Z,4.48
2022-10-18T21:03:54.291Z,4.41
2022-10-18T21:06:25.218Z,4.12
2022-10-18T21:08:53.192Z,4.03
2022-10-18T21:11:19.743Z,4.19
2022-10-18T21:13:53.324Z,3.99
2022-10-18T21:16:20.262Z,4.31
2022-10-18T21:18:46.839Z,4.53
2022-10-18T21:21:14.901Z,4.65
2022-10-18T21:23:41.906Z,4.57
2022-10-18T21:26:13.434Z,4.35
2022-10-18T21:28:40.082Z,3.78
2022-10-18T21:31:12.607Z,3.83
2022-10-18T21:33:40.181Z,3.97
2022-10-18T21:36:06.820Z,3.74
2022-10-18T21:38:33.877Z,4.05
2022-10-18T21:41:00.445Z,3.50
2022-10-18T21:43:27.131Z,3.98
2022-10-18T21:45:57.222Z,3.68
2022-10-18T21:48:23.784Z,3.66
2022-10-18T21:50:50.398Z,3.77
2022-10-18T21:53:16.930Z,3.93
2022-10-18T21:55:43.459Z,4.04
2022-10-18T21:58:10.402Z,3.93
2022-10-18T22:00:37.114Z,4.87
2022-10-18T22:03:10.531Z,4.67
2022-10-18T22:05:37.204Z,3.75
2022-10-18T22:08:04.884Z,3.58
2022-10-18T22:10:31.494Z,3.67
2022-10-18T22:12:58.022Z,3.75
2022-10-18T22:15:24.607Z,3.64
2022-10-18T22:17:51.375Z,3.83
2022-10-18T22:20:17.929Z,3.61
2022-10-18T22:22:44.447Z,3.74
2022-10-18T22:25:10.996Z,3.79
2022-10-18T22:27:38.542Z,3.87
2022-10-18T22:30:05.396Z,3.99
2022-10-18T22:32:31.990Z,3.67
2022-10-18T22:34:58.781Z,3.97
2022-10-18T22:37:25.410Z,3.70
2022-10-18T22:39:51.932Z,3.82
2022-10-18T22:42:18.466Z,3.89
2022-10-18T22:44:44.955Z,3.62
2022-10-18T22:47:11.470Z,3.86
2022-10-18T22:49:38.075Z,3.59
2022-10-18T22:52:04.636Z,3.91
2022-10-18T22:54:31.143Z,3.74
2022-10-18T22:56:57.676Z,3.93
2022-10-18T22:59:24.729Z,3.70
2022-10-18T23:01:51.243Z,3.41
2022-10-18T23:04:17.833Z,3.77
2022-10-18T23:06:44.337Z,3.81
2022-10-18T23:09:11.424Z,3.60
2022-10-18T23:11:38.672Z,3.52
2022-10-18T23:14:06.316Z,3.77
2022-10-18T23:16:32.916Z,3.59
2022-10-18T23:18:59.494Z,3.44
2022-10-18T23:21:28.081Z,3.48
2022-10-18T23:23:54.886Z,3.43
2022-10-18T23:26:23.292Z,3.87
2022-10-18T23:28:51.161Z,3.38
2022-10-18T23:31:19.797Z,3.40
2022-10-18T23:33:52.047Z,3.58
2022-10-18T23:36:18.647Z,3.39
2022-10-18T23:38:46.067Z,3.56
2022-10-18T23:41:13.743Z,3.48
2022-10-18T23:43:41.009Z,3.57
2022-10-18T23:46:08.640Z,3.38
2022-10-18T23:48:35.899Z,3.24
2022-10-18T23:51:03.043Z,3.13
2022-10-18T23:53:30.140Z,3.25
